sensor_id;sensor_type;location;lat;lon;timestamp;P1;durP1;ratioP1;P2;durP2;ratioP2
12145;SDS011;6136;47.032;15.398;2023-03-23T00:02:22;13.27;;;9.43;;
12145;SDS011;6136;47.032;15.398;2023-03-23T00:04:50;12.67;;;8.33;;
12145;SDS011;6136;47.032;15.398;2023-03-23T00:07:18;17.97;;;9.50;;
12145;SDS011;6136;47.032;15.398;2023-03-23T00:09:47;13.97;;;8.90;;
12145;SDS011;6136;47.032;15.398;2023-03-23T00:12:20;13.90;;;9.80;;
12145;SDS011;6136;47.032;15.398;2023-03-23T00:14:58;13.57;;;8.70;;
12145;SDS011;6136;47.032;15.398;2023-03-23T00:17:26;13.07;;;8.13;;
12145;SDS011;6136;47.032;15.398;2023-03-23T00:19:53;10.63;;;7.97;;
12145;SDS011;6136;47.032;15.398;2023-03-23T00:22:20;11.47;;;8.17;;
12145;SDS011;6136;47.032;15.398;2023-03-23T00:24:50;9.20;;;6.80;;
12145;SDS011;6136;47.032;15.398;2023-03-23T00:27:18;11.87;;;7.37;;
12145;SDS011;6136;47.032;15.398;2023-03-23T00:29:48;9.57;;;7.10;;
12145;SDS011;6136;47.032;15.398;2023-03-23T00:32:18;9.17;;;6.97;;
12145;SDS011;6136;47.032;15.398;2023-03-23T00:34:46;15.73;;;7.53;;
12145;SDS011;6136;47.032;15.398;2023-03-23T00:37:14;11.43;;;8.13;;
12145;SDS011;6136;47.032;15.398;2023-03-23T00:39:42;11.33;;;7.53;;
12145;SDS011;6136;47.032;15.398;2023-03-23T00:42:12;13.87;;;7.83;;
12145;SDS011;6136;47.032;15.398;2023-03-23T00:44:41;12.70;;;7.80;;
12145;SDS011;6136;47.032;15.398;2023-03-23T00:47:09;10.37;;;6.83;;
12145;SDS011;6136;47.032;15.398;2023-03-23T00:49:38;8.87;;;7.20;;
12145;SDS011;6136;47.032;15.398;2023-03-23T00:52:06;9.73;;;8.10;;
12145;SDS011;6136;47.032;15.398;2023-03-23T00:54:33;12.97;;;8.20;;
12145;SDS011;6136;47.032;15.398;2023-03-23T00:57:03;9.93;;;7.53;;
12145;SDS011;6136;47.032;15.398;2023-03-23T00:59:31;9.87;;;7.57;;
12145;SDS011;6136;47.032;15.398;2023-03-23T01:01:59;10.07;;;8.20;;
12145;SDS011;6136;47.032;15.398;2023-03-23T01:04:26;11.67;;;7.23;;
12145;SDS011;6136;47.032;15.398;2023-03-23T01:06:56;9.27;;;7.03;;
12145;SDS011;6136;47.032;15.398;2023-03-23T01:09:25;10.73;;;7.63;;
12145;SDS011;6136;47.032;15.398;2023-03-23T01:11:53;10.90;;;6.77;;
12145;SDS011;6136;47.032;15.398;2023-03-23T01:14:21;8.97;;;7.00;;
12145;SDS011;6136;47.032;15.398;2023-03-23T01:16:50;10.57;;;6.97;;
12145;SDS011;6136;47.032;15.398;2023-03-23T01:19:19;8.50;;;6.50;;
12145;SDS011;6136;47.032;15.398;2023-03-23T01:21:46;8.90;;;7.37;;
12145;SDS011;6136;47.032;15.398;2023-03-23T01:24:13;8.67;;;6.53;;
12145;SDS011;6136;47.032;15.398;2023-03-23T01:26:40;11.63;;;6.43;;
12145;SDS011;6136;47.032;15.398;2023-03-23T01:29:07;10.80;;;6.53;;
12145;SDS011;6136;47.032;15.398;2023-03-23T01:31:34;9.97;;;6.50;;
12145;SDS011;6136;47.032;15.398;2023-03-23T01:34:04;7.33;;;5.83;;
12145;SDS011;6136;47.032;15.398;2023-03-23T01:36:33;7.03;;;6.07;;
12145;SDS011;6136;47.032;15.398;2023-03-23T01:39:02;10.17;;;7.37;;
12145;SDS011;6136;47.032;15.398;2023-03-23T01:41:32;7.97;;;6.47;;
12145;SDS011;6136;47.032;15.398;2023-03-23T01:44:05;8.00;;;6.60;;
12145;SDS011;6136;47.032;15.398;2023-03-23T01:46:39;11.57;;;6.80;;
12145;SDS011;6136;47.032;15.398;2023-03-23T01:49:07;8.70;;;6.20;;
12145;SDS011;6136;47.032;15.398;2023-03-23T01:51:39;9.53;;;6.13;;
12145;SDS011;6136;47.032;15.398;2023-03-23T01:54:11;6.77;;;6.03;;
12145;SDS011;6136;47.032;15.398;2023-03-23T01:56:45;9.43;;;6.27;;
12145;SDS011;6136;47.032;15.398;2023-03-23T01:59:15;7.73;;;5.77;;
12145;SDS011;6136;47.032;15.398;2023-03-23T02:01:47;7.93;;;6.07;;
12145;SDS011;6136;47.032;15.398;2023-03-23T02:04:18;7.13;;;5.33;;
12145;SDS011;6136;47.032;15.398;2023-03-23T02:06:48;7.53;;;5.90;;
12145;SDS011;6136;47.032;15.398;2023-03-23T02:09:19;10.20;;;5.93;;
12145;SDS011;6136;47.032;15.398;2023-03-23T02:11:48;6.47;;;5.83;;
12145;SDS011;6136;47.032;15.398;2023-03-23T02:14:16;8.40;;;5.40;;
12145;SDS011;6136;47.032;15.398;2023-03-23T02:16:45;8.03;;;5.83;;
12145;SDS011;6136;47.032;15.398;2023-03-23T02:22:38;6.87;;;5.67;;
12145;SDS011;6136;47.032;15.398;2023-03-23T02:28:31;6.47;;;5.53;;
12145;SDS011;6136;47.032;15.398;2023-03-23T02:31:18;8.23;;;6.07;;
12145;SDS011;6136;47.032;15.398;2023-03-23T02:33:58;12.17;;;5.30;;
12145;SDS011;6136;47.032;15.398;2023-03-23T02:36:28;7.07;;;5.60;;
12145;SDS011;6136;47.032;15.398;2023-03-23T02:39:02;6.77;;;5.50;;
12145;SDS011;6136;47.032;15.398;2023-03-23T02:41:35;7.40;;;5.93;;
12145;SDS011;6136;47.032;15.398;2023-03-23T02:44:06;7.03;;;5.57;;
12145;SDS011;6136;47.032;15.398;2023-03-23T02:46:36;6.93;;;5.63;;
12145;SDS011;6136;47.032;15.398;2023-03-23T02:49:05;7.87;;;6.50;;
12145;SDS011;6136;47.032;15.398;2023-03-23T02:51:34;6.80;;;5.70;;
12145;SDS011;6136;47.032;15.398;2023-03-23T02:54:02;10.33;;;6.07;;
12145;SDS011;6136;47.032;15.398;2023-03-23T02:56:32;6.83;;;6.07;;
12145;SDS011;6136;47.032;15.398;2023-03-23T02:59:01;7.90;;;5.97;;
12145;SDS011;6136;47.032;15.398;2023-03-23T03:01:52;8.13;;;6.23;;
12145;SDS011;6136;47.032;15.398;2023-03-23T03:04:26;8.20;;;6.53;;
12145;SDS011;6136;47.032;15.398;2023-03-23T03:07:01;7.33;;;6.23;;
12145;SDS011;6136;47.032;15.398;2023-03-23T03:09:40;6.40;;;5.70;;
12145;SDS011;6136;47.032;15.398;2023-03-23T03:12:16;6.77;;;5.87;;
12145;SDS011;6136;47.032;15.398;2023-03-23T03:14:51;7.33;;;5.80;;
12145;SDS011;6136;47.032;15.398;2023-03-23T03:17:25;8.83;;;6.63;;
12145;SDS011;6136;47.032;15.398;2023-03-23T03:19:58;7.23;;;5.80;;
12145;SDS011;6136;47.032;15.398;2023-03-23T03:22:32;6.50;;;5.70;;
12145;SDS011;6136;47.032;15.398;2023-03-23T03:25:03;8.63;;;5.67;;
12145;SDS011;6136;47.032;15.398;2023-03-23T03:27:32;9.70;;;6.53;;
12145;SDS011;6136;47.032;15.398;2023-03-23T03:30:08;7.70;;;6.03;;
12145;SDS011;6136;47.032;15.398;2023-03-23T03:32:43;9.33;;;7.20;;
12145;SDS011;6136;47.032;15.398;2023-03-23T03:35:16;7.07;;;6.13;;
12145;SDS011;6136;47.032;15.398;2023-03-23T03:37:44;7.70;;;6.73;;
12145;SDS011;6136;47.032;15.398;2023-03-23T03:40:12;11.30;;;6.47;;
12145;SDS011;6136;47.032;15.398;2023-03-23T03:42:42;9.40;;;6.50;;
12145;SDS011;6136;47.032;15.398;2023-03-23T03:45:11;8.93;;;6.00;;
12145;SDS011;6136;47.032;15.398;2023-03-23T03:47:41;11.37;;;6.33;;
12145;SDS011;6136;47.032;15.398;2023-03-23T03:50:08;9.60;;;6.57;;
12145;SDS011;6136;47.032;15.398;2023-03-23T03:52:37;7.23;;;6.03;;
12145;SDS011;6136;47.032;15.398;2023-03-23T03:55:06;8.67;;;6.63;;
12145;SDS011;6136;47.032;15.398;2023-03-23T03:57:35;8.40;;;6.73;;
12145;SDS011;6136;47.032;15.398;2023-03-23T04:00:03;8.70;;;6.27;;
12145;SDS011;6136;47.032;15.398;2023-03-23T04:02:41;7.50;;;6.27;;
12145;SDS011;6136;47.032;15.398;2023-03-23T04:05:09;8.90;;;6.33;;
12145;SDS011;6136;47.032;15.398;2023-03-23T04:07:39;8.70;;;6.33;;
12145;SDS011;6136;47.032;15.398;2023-03-23T04:10:08;8.03;;;6.03;;
12145;SDS011;6136;47.032;15.398;2023-03-23T04:12:37;11.67;;;6.20;;
12145;SDS011;6136;47.032;15.398;2023-03-23T04:15:23;7.83;;;6.60;;
12145;SDS011;6136;47.032;15.398;2023-03-23T04:17:50;18.70;;;6.80;;
12145;SDS011;6136;47.032;15.398;2023-03-23T04:20:17;9.93;;;6.60;;
12145;SDS011;6136;47.032;15.398;2023-03-23T04:22:50;8.50;;;6.63;;
12145;SDS011;6136;47.032;15.398;2023-03-23T04:25:22;8.27;;;6.57;;
12145;SDS011;6136;47.032;15.398;2023-03-23T04:27:52;8.30;;;5.80;;
12145;SDS011;6136;47.032;15.398;2023-03-23T04:30:24;8.13;;;6.80;;
12145;SDS011;6136;47.032;15.398;2023-03-23T04:33:07;6.90;;;6.20;;
12145;SDS011;6136;47.032;15.398;2023-03-23T04:35:40;10.47;;;7.20;;
12145;SDS011;6136;47.032;15.398;2023-03-23T04:38:13;9.37;;;6.33;;
12145;SDS011;6136;47.032;15.398;2023-03-23T04:40:46;8.13;;;6.40;;
12145;SDS011;6136;47.032;15.398;2023-03-23T04:43:39;9.57;;;6.97;;
12145;SDS011;6136;47.032;15.398;2023-03-23T04:46:29;9.50;;;6.70;;
12145;SDS011;6136;47.032;15.398;2023-03-23T04:49:02;10.50;;;6.63;;
12145;SDS011;6136;47.032;15.398;2023-03-23T04:51:33;8.20;;;6.10;;
12145;SDS011;6136;47.032;15.398;2023-03-23T04:54:15;11.43;;;7.53;;
12145;SDS011;6136;47.032;15.398;2023-03-23T04:56:47;11.13;;;6.70;;
12145;SDS011;6136;47.032;15.398;2023-03-23T04:59:15;9.17;;;6.83;;
12145;SDS011;6136;47.032;15.398;2023-03-23T05:01:56;10.20;;;6.00;;
12145;SDS011;6136;47.032;15.398;2023-03-23T05:04:24;9.70;;;6.53;;
12145;SDS011;6136;47.032;15.398;2023-03-23T05:07:01;7.53;;;6.10;;
12145;SDS011;6136;47.032;15.398;2023-03-23T05:09:32;7.50;;;6.53;;
12145;SDS011;6136;47.032;15.398;2023-03-23T05:12:03;10.60;;;7.40;;
12145;SDS011;6136;47.032;15.398;2023-03-23T05:14:32;10.03;;;7.47;;
12145;SDS011;6136;47.032;15.398;2023-03-23T05:17:07;15.47;;;7.93;;
12145;SDS011;6136;47.032;15.398;2023-03-23T05:19:35;13.93;;;8.37;;
12145;SDS011;6136;47.032;15.398;2023-03-23T05:22:13;13.00;;;8.17;;
12145;SDS011;6136;47.032;15.398;2023-03-23T05:24:48;14.30;;;8.10;;
12145;SDS011;6136;47.032;15.398;2023-03-23T05:27:17;11.30;;;8.57;;
12145;SDS011;6136;47.032;15.398;2023-03-23T05:29:47;13.43;;;7.80;;
12145;SDS011;6136;47.032;15.398;2023-03-23T05:32:14;13.10;;;6.97;;
12145;SDS011;6136;47.032;15.398;2023-03-23T05:34:43;12.33;;;7.83;;
12145;SDS011;6136;47.032;15.398;2023-03-23T05:37:10;10.80;;;6.67;;
12145;SDS011;6136;47.032;15.398;2023-03-23T05:40:05;9.97;;;7.27;;
12145;SDS011;6136;47.032;15.398;2023-03-23T05:42:41;13.30;;;8.20;;
12145;SDS011;6136;47.032;15.398;2023-03-23T05:45:22;14.70;;;8.70;;
12145;SDS011;6136;47.032;15.398;2023-03-23T05:47:50;15.53;;;7.87;;
12145;SDS011;6136;47.032;15.398;2023-03-23T05:50:20;11.43;;;7.37;;
12145;SDS011;6136;47.032;15.398;2023-03-23T05:52:47;10.87;;;7.10;;
12145;SDS011;6136;47.032;15.398;2023-03-23T05:55:17;10.33;;;6.83;;
12145;SDS011;6136;47.032;15.398;2023-03-23T05:57:52;9.00;;;7.13;;
12145;SDS011;6136;47.032;15.398;2023-03-23T06:00:27;11.07;;;6.97;;
12145;SDS011;6136;47.032;15.398;2023-03-23T06:03:15;11.60;;;7.53;;
12145;SDS011;6136;47.032;15.398;2023-03-23T06:05:50;11.63;;;7.77;;
12145;SDS011;6136;47.032;15.398;2023-03-23T06:08:20;10.57;;;7.33;;
12145;SDS011;6136;47.032;15.398;2023-03-23T06:10:49;15.33;;;9.23;;
12145;SDS011;6136;47.032;15.398;2023-03-23T06:13:18;10.87;;;7.80;;
12145;SDS011;6136;47.032;15.398;2023-03-23T06:15:49;16.57;;;7.93;;
12145;SDS011;6136;47.032;15.398;2023-03-23T06:18:25;10.80;;;7.10;;
12145;SDS011;6136;47.032;15.398;2023-03-23T06:21:09;10.30;;;7.37;;
12145;SDS011;6136;47.032;15.398;2023-03-23T06:24:04;10.13;;;6.70;;
12145;SDS011;6136;47.032;15.398;2023-03-23T06:26:35;8.90;;;6.93;;
12145;SDS011;6136;47.032;15.398;2023-03-23T06:29:06;10.70;;;7.00;;
12145;SDS011;6136;47.032;15.398;2023-03-23T06:31:43;12.17;;;6.73;;
12145;SDS011;6136;47.032;15.398;2023-03-23T06:34:13;10.97;;;6.67;;
12145;SDS011;6136;47.032;15.398;2023-03-23T06:37:17;11.63;;;6.87;;
12145;SDS011;6136;47.032;15.398;2023-03-23T06:39:56;15.13;;;8.03;;
12145;SDS011;6136;47.032;15.398;2023-03-23T06:42:32;13.03;;;7.70;;
12145;SDS011;6136;47.032;15.398;2023-03-23T06:45:22;14.20;;;7.37;;
12145;SDS011;6136;47.032;15.398;2023-03-23T06:47:58;14.23;;;7.27;;
12145;SDS011;6136;47.032;15.398;2023-03-23T06:50:27;13.93;;;6.33;;
12145;SDS011;6136;47.032;15.398;2023-03-23T06:52:55;11.17;;;7.10;;
12145;SDS011;6136;47.032;15.398;2023-03-23T06:55:22;10.97;;;7.33;;
12145;SDS011;6136;47.032;15.398;2023-03-23T06:57:50;24.80;;;7.77;;
12145;SDS011;6136;47.032;15.398;2023-03-23T07:00:18;17.57;;;7.77;;
12145;SDS011;6136;47.032;15.398;2023-03-23T07:02:46;14.93;;;8.03;;
12145;SDS011;6136;47.032;15.398;2023-03-23T07:05:13;16.37;;;7.20;;
12145;SDS011;6136;47.032;15.398;2023-03-23T07:07:40;13.73;;;6.67;;
12145;SDS011;6136;47.032;15.398;2023-03-23T07:10:17;9.80;;;7.03;;
12145;SDS011;6136;47.032;15.398;2023-03-23T07:12:45;11.97;;;6.70;;
12145;SDS011;6136;47.032;15.398;2023-03-23T07:15:14;7.30;;;6.27;;
12145;SDS011;6136;47.032;15.398;2023-03-23T07:17:46;8.47;;;6.50;;
12145;SDS011;6136;47.032;15.398;2023-03-23T07:20:20;12.03;;;6.40;;
12145;SDS011;6136;47.032;15.398;2023-03-23T07:22:47;12.07;;;6.90;;
12145;SDS011;6136;47.032;15.398;2023-03-23T07:25:37;13.47;;;6.27;;
12145;SDS011;6136;47.032;15.398;2023-03-23T07:28:07;13.50;;;6.47;;
12145;SDS011;6136;47.032;15.398;2023-03-23T07:30:38;11.27;;;6.93;;
12145;SDS011;6136;47.032;15.398;2023-03-23T07:33:05;11.97;;;6.03;;
12145;SDS011;6136;47.032;15.398;2023-03-23T07:35:35;8.90;;;6.83;;
12145;SDS011;6136;47.032;15.398;2023-03-23T07:38:06;13.27;;;6.50;;
12145;SDS011;6136;47.032;15.398;2023-03-23T07:40:35;12.20;;;6.23;;
12145;SDS011;6136;47.032;15.398;2023-03-23T07:43:07;18.80;;;6.90;;
12145;SDS011;6136;47.032;15.398;2023-03-23T07:45:55;15.13;;;6.70;;
12145;SDS011;6136;47.032;15.398;2023-03-23T07:48:27;10.68;;;6.40;;
12145;SDS011;6136;47.032;15.398;2023-03-23T07:50:54;13.32;;;7.20;;
12145;SDS011;6136;47.032;15.398;2023-03-23T07:53:21;16.67;;;6.72;;
12145;SDS011;6136;47.032;15.398;2023-03-23T07:56:08;22.10;;;7.30;;
12145;SDS011;6136;47.032;15.398;2023-03-23T07:58:35;24.38;;;7.50;;
12145;SDS011;6136;47.032;15.398;2023-03-23T08:01:04;18.60;;;6.60;;
12145;SDS011;6136;47.032;15.398;2023-03-23T08:03:33;11.85;;;6.78;;
12145;SDS011;6136;47.032;15.398;2023-03-23T08:06:33;9.90;;;6.15;;
12145;SDS011;6136;47.032;15.398;2023-03-23T08:09:14;20.77;;;5.80;;
12145;SDS011;6136;47.032;15.398;2023-03-23T08:12:00;8.60;;;6.22;;
12145;SDS011;6136;47.032;15.398;2023-03-23T08:14:46;12.77;;;6.40;;
12145;SDS011;6136;47.032;15.398;2023-03-23T08:17:33;8.10;;;5.67;;
12145;SDS011;6136;47.032;15.398;2023-03-23T08:20:36;14.13;;;6.83;;
12145;SDS011;6136;47.032;15.398;2023-03-23T08:23:24;14.73;;;6.23;;
12145;SDS011;6136;47.032;15.398;2023-03-23T08:26:17;7.30;;;5.53;;
12145;SDS011;6136;47.032;15.398;2023-03-23T08:28:52;18.37;;;6.27;;
12145;SDS011;6136;47.032;15.398;2023-03-23T08:31:18;12.23;;;6.43;;
12145;SDS011;6136;47.032;15.398;2023-03-23T08:34:19;9.30;;;6.00;;
12145;SDS011;6136;47.032;15.398;2023-03-23T08:37:02;14.53;;;6.10;;
12145;SDS011;6136;47.032;15.398;2023-03-23T08:40:02;9.50;;;5.53;;
12145;SDS011;6136;47.032;15.398;2023-03-23T08:42:54;11.88;;;5.55;;
12145;SDS011;6136;47.032;15.398;2023-03-23T08:45:54;8.48;;;5.95;;
12145;SDS011;6136;47.032;15.398;2023-03-23T08:48:41;9.70;;;5.90;;
12145;SDS011;6136;47.032;15.398;2023-03-23T08:51:30;8.80;;;6.45;;
12145;SDS011;6136;47.032;15.398;2023-03-23T08:54:20;9.55;;;6.53;;
12145;SDS011;6136;47.032;15.398;2023-03-23T08:57:06;14.02;;;7.60;;
12145;SDS011;6136;47.032;15.398;2023-03-23T08:59:47;10.60;;;6.30;;
12145;SDS011;6136;47.032;15.398;2023-03-23T09:02:29;14.13;;;8.02;;
12145;SDS011;6136;47.032;15.398;2023-03-23T09:05:26;13.23;;;6.40;;
12145;SDS011;6136;47.032;15.398;2023-03-23T09:08:04;9.60;;;7.05;;
12145;SDS011;6136;47.032;15.398;2023-03-23T09:10:31;14.65;;;5.93;;
12145;SDS011;6136;47.032;15.398;2023-03-23T09:12:58;9.15;;;6.07;;
12145;SDS011;6136;47.032;15.398;2023-03-23T09:15:25;11.32;;;6.63;;
12145;SDS011;6136;47.032;15.398;2023-03-23T09:17:52;9.95;;;6.03;;
12145;SDS011;6136;47.032;15.398;2023-03-23T09:20:23;11.30;;;6.70;;
12145;SDS011;6136;47.032;15.398;2023-03-23T09:22:52;12.20;;;7.18;;
12145;SDS011;6136;47.032;15.398;2023-03-23T09:25:22;8.98;;;6.47;;
12145;SDS011;6136;47.032;15.398;2023-03-23T09:27:54;10.50;;;6.40;;
12145;SDS011;6136;47.032;15.398;2023-03-23T09:30:23;12.52;;;7.15;;
12145;SDS011;6136;47.032;15.398;2023-03-23T09:32:52;10.05;;;5.97;;
12145;SDS011;6136;47.032;15.398;2023-03-23T09:35:20;10.02;;;6.93;;
12145;SDS011;6136;47.032;15.398;2023-03-23T09:37:49;8.63;;;7.00;;
12145;SDS011;6136;47.032;15.398;2023-03-23T09:40:17;12.25;;;5.93;;
12145;SDS011;6136;47.032;15.398;2023-03-23T09:42:51;13.73;;;6.85;;
12145;SDS011;6136;47.032;15.398;2023-03-23T09:45:39;13.13;;;6.18;;
12145;SDS011;6136;47.032;15.398;2023-03-23T09:48:20;13.88;;;6.07;;
12145;SDS011;6136;47.032;15.398;2023-03-23T09:51:10;14.95;;;6.05;;
12145;SDS011;6136;47.032;15.398;2023-03-23T09:53:45;11.40;;;5.78;;
12145;SDS011;6136;47.032;15.398;2023-03-23T09:56:16;7.22;;;6.20;;
12145;SDS011;6136;47.032;15.398;2023-03-23T09:58:48;14.88;;;6.45;;
12145;SDS011;6136;47.032;15.398;2023-03-23T10:01:20;7.30;;;5.70;;
12145;SDS011;6136;47.032;15.398;2023-03-23T10:03:51;8.70;;;5.43;;
12145;SDS011;6136;47.032;15.398;2023-03-23T10:06:28;6.38;;;5.75;;
12145;SDS011;6136;47.032;15.398;2023-03-23T10:08:56;6.63;;;5.63;;
12145;SDS011;6136;47.032;15.398;2023-03-23T10:11:28;11.07;;;5.60;;
12145;SDS011;6136;47.032;15.398;2023-03-23T10:14:09;9.20;;;6.28;;
12145;SDS011;6136;47.032;15.398;2023-03-23T10:16:47;9.90;;;5.82;;
12145;SDS011;6136;47.032;15.398;2023-03-23T10:19:25;13.00;;;6.13;;
12145;SDS011;6136;47.032;15.398;2023-03-23T10:21:59;7.82;;;5.82;;
12145;SDS011;6136;47.032;15.398;2023-03-23T10:24:33;8.52;;;6.07;;
12145;SDS011;6136;47.032;15.398;2023-03-23T10:27:05;8.43;;;6.70;;
12145;SDS011;6136;47.032;15.398;2023-03-23T10:29:42;13.95;;;6.63;;
12145;SDS011;6136;47.032;15.398;2023-03-23T10:32:16;10.43;;;6.25;;
12145;SDS011;6136;47.032;15.398;2023-03-23T10:34:45;15.55;;;7.07;;
12145;SDS011;6136;47.032;15.398;2023-03-23T10:37:17;10.15;;;5.97;;
12145;SDS011;6136;47.032;15.398;2023-03-23T10:39:49;9.30;;;6.43;;
12145;SDS011;6136;47.032;15.398;2023-03-23T10:42:26;8.93;;;5.80;;
12145;SDS011;6136;47.032;15.398;2023-03-23T10:44:57;11.63;;;6.22;;
12145;SDS011;6136;47.032;15.398;2023-03-23T10:47:26;9.85;;;5.50;;
12145;SDS011;6136;47.032;15.398;2023-03-23T10:49:54;7.03;;;5.43;;
12145;SDS011;6136;47.032;15.398;2023-03-23T10:52:26;6.97;;;5.82;;
12145;SDS011;6136;47.032;15.398;2023-03-23T10:54:58;7.05;;;5.80;;
12145;SDS011;6136;47.032;15.398;2023-03-23T10:57:31;6.68;;;5.47;;
12145;SDS011;6136;47.032;15.398;2023-03-23T11:00:02;6.70;;;5.95;;
12145;SDS011;6136;47.032;15.398;2023-03-23T11:02:38;7.43;;;5.32;;
12145;SDS011;6136;47.032;15.398;2023-03-23T11:05:13;6.40;;;5.53;;
12145;SDS011;6136;47.032;15.398;2023-03-23T11:07:47;9.95;;;5.45;;
12145;SDS011;6136;47.032;15.398;2023-03-23T11:10:25;9.27;;;5.10;;
12145;SDS011;6136;47.032;15.398;2023-03-23T11:12:56;7.45;;;4.80;;
12145;SDS011;6136;47.032;15.398;2023-03-23T11:15:28;6.07;;;5.47;;
12145;SDS011;6136;47.032;15.398;2023-03-23T11:17:57;6.93;;;4.90;;
12145;SDS011;6136;47.032;15.398;2023-03-23T11:20:26;9.75;;;5.28;;
12145;SDS011;6136;47.032;15.398;2023-03-23T11:22:56;6.10;;;4.63;;
12145;SDS011;6136;47.032;15.398;2023-03-23T11:25:23;7.65;;;4.97;;
12145;SDS011;6136;47.032;15.398;2023-03-23T11:27:51;6.30;;;5.38;;
12145;SDS011;6136;47.032;15.398;2023-03-23T11:30:20;6.25;;;5.65;;
12145;SDS011;6136;47.032;15.398;2023-03-23T11:32:51;5.40;;;4.90;;
12145;SDS011;6136;47.032;15.398;2023-03-23T11:35:20;8.35;;;5.32;;
12145;SDS011;6136;47.032;15.398;2023-03-23T11:37:53;13.63;;;4.93;;
12145;SDS011;6136;47.032;15.398;2023-03-23T11:40:23;11.38;;;5.00;;
12145;SDS011;6136;47.032;15.398;2023-03-23T11:42:57;7.90;;;5.25;;
12145;SDS011;6136;47.032;15.398;2023-03-23T11:45:31;7.97;;;5.00;;
12145;SDS011;6136;47.032;15.398;2023-03-23T11:48:10;5.75;;;4.43;;
12145;SDS011;6136;47.032;15.398;2023-03-23T11:50:47;9.32;;;4.93;;
12145;SDS011;6136;47.032;15.398;2023-03-23T11:53:22;14.15;;;5.85;;
12145;SDS011;6136;47.032;15.398;2023-03-23T11:55:57;8.75;;;4.68;;
12145;SDS011;6136;47.032;15.398;2023-03-23T11:58:36;9.90;;;5.28;;
12145;SDS011;6136;47.032;15.398;2023-03-23T12:01:05;5.50;;;4.80;;
12145;SDS011;6136;47.032;15.398;2023-03-23T12:03:47;9.52;;;5.40;;
12145;SDS011;6136;47.032;15.398;2023-03-23T12:06:25;5.43;;;4.13;;
12145;SDS011;6136;47.032;15.398;2023-03-23T12:09:14;5.57;;;4.78;;
12145;SDS011;6136;47.032;15.398;2023-03-23T12:11:52;5.53;;;4.60;;
12145;SDS011;6136;47.032;15.398;2023-03-23T12:14:27;8.82;;;5.07;;
12145;SDS011;6136;47.032;15.398;2023-03-23T12:17:05;8.68;;;4.90;;
12145;SDS011;6136;47.032;15.398;2023-03-23T12:19:49;6.22;;;5.03;;
12145;SDS011;6136;47.032;15.398;2023-03-23T12:22:35;5.43;;;4.93;;
12145;SDS011;6136;47.032;15.398;2023-03-23T12:25:17;5.47;;;4.95;;
12145;SDS011;6136;47.032;15.398;2023-03-23T12:27:52;5.57;;;4.95;;
12145;SDS011;6136;47.032;15.398;2023-03-23T12:30:30;8.20;;;4.75;;
12145;SDS011;6136;47.032;15.398;2023-03-23T12:33:11;7.05;;;4.70;;
12145;SDS011;6136;47.032;15.398;2023-03-23T12:35:51;5.95;;;5.10;;
12145;SDS011;6136;47.032;15.398;2023-03-23T12:41:32;5.38;;;4.78;;
12145;SDS011;6136;47.032;15.398;2023-03-23T12:44:05;8.25;;;4.47;;
12145;SDS011;6136;47.032;15.398;2023-03-23T12:49:27;4.90;;;4.40;;
12145;SDS011;6136;47.032;15.398;2023-03-23T12:52:00;7.93;;;4.53;;
12145;SDS011;6136;47.032;15.398;2023-03-23T12:54:32;5.88;;;4.72;;
12145;SDS011;6136;47.032;15.398;2023-03-23T12:57:06;6.22;;;5.55;;
12145;SDS011;6136;47.032;15.398;2023-03-23T12:59:40;6.43;;;5.53;;
12145;SDS011;6136;47.032;15.398;2023-03-23T13:02:16;5.15;;;4.70;;
12145;SDS011;6136;47.032;15.398;2023-03-23T13:04:51;6.32;;;5.13;;
12145;SDS011;6136;47.032;15.398;2023-03-23T13:07:28;4.90;;;4.50;;
12145;SDS011;6136;47.032;15.398;2023-03-23T13:10:01;6.30;;;5.10;;
12145;SDS011;6136;47.032;15.398;2023-03-23T13:12:34;9.98;;;5.10;;
12145;SDS011;6136;47.032;15.398;2023-03-23T13:15:06;6.03;;;5.10;;
12145;SDS011;6136;47.032;15.398;2023-03-23T13:17:46;5.63;;;4.88;;
12145;SDS011;6136;47.032;15.398;2023-03-23T13:20:27;4.85;;;4.35;;
12145;SDS011;6136;47.032;15.398;2023-03-23T13:23:10;5.78;;;4.28;;
12145;SDS011;6136;47.032;15.398;2023-03-23T13:25:46;5.65;;;4.43;;
12145;SDS011;6136;47.032;15.398;2023-03-23T13:28:16;7.03;;;5.15;;
12145;SDS011;6136;47.032;15.398;2023-03-23T13:30:55;8.30;;;4.63;;
12145;SDS011;6136;47.032;15.398;2023-03-23T13:33:25;5.15;;;4.65;;
12145;SDS011;6136;47.032;15.398;2023-03-23T13:35:56;4.97;;;4.28;;
12145;SDS011;6136;47.032;15.398;2023-03-23T13:38:32;5.60;;;4.50;;
12145;SDS011;6136;47.032;15.398;2023-03-23T13:41:05;5.07;;;4.55;;
12145;SDS011;6136;47.032;15.398;2023-03-23T13:43:36;6.78;;;4.80;;
12145;SDS011;6136;47.032;15.398;2023-03-23T13:46:08;7.78;;;4.90;;
12145;SDS011;6136;47.032;15.398;2023-03-23T13:48:42;6.57;;;5.55;;
12145;SDS011;6136;47.032;15.398;2023-03-23T13:51:25;4.72;;;4.32;;
12145;SDS011;6136;47.032;15.398;2023-03-23T13:54:13;5.15;;;4.75;;
12145;SDS011;6136;47.032;15.398;2023-03-23T13:56:48;4.88;;;4.38;;
12145;SDS011;6136;47.032;15.398;2023-03-23T14:02:32;4.93;;;3.60;;
12145;SDS011;6136;47.032;15.398;2023-03-23T14:08:02;5.15;;;3.97;;
12145;SDS011;6136;47.032;15.398;2023-03-23T14:10:40;8.15;;;4.03;;
12145;SDS011;6136;47.032;15.398;2023-03-23T14:13:14;4.30;;;3.90;;
12145;SDS011;6136;47.032;15.398;2023-03-23T14:15:53;6.65;;;4.35;;
12145;SDS011;6136;47.032;15.398;2023-03-23T14:18:23;7.22;;;4.10;;
12145;SDS011;6136;47.032;15.398;2023-03-23T14:20:53;4.85;;;3.80;;
12145;SDS011;6136;47.032;15.398;2023-03-23T14:23:22;6.13;;;4.13;;
12145;SDS011;6136;47.032;15.398;2023-03-23T14:25:56;4.15;;;3.75;;
12145;SDS011;6136;47.032;15.398;2023-03-23T14:28:30;6.95;;;3.78;;
12145;SDS011;6136;47.032;15.398;2023-03-23T14:30:59;6.72;;;3.88;;
12145;SDS011;6136;47.032;15.398;2023-03-23T14:33:26;5.88;;;4.00;;
12145;SDS011;6136;47.032;15.398;2023-03-23T14:35:53;5.78;;;3.70;;
12145;SDS011;6136;47.032;15.398;2023-03-23T14:38:24;6.55;;;3.80;;
12145;SDS011;6136;47.032;15.398;2023-03-23T14:41:02;4.63;;;4.07;;
12145;SDS011;6136;47.032;15.398;2023-03-23T14:43:30;6.07;;;4.55;;
12145;SDS011;6136;47.032;15.398;2023-03-23T14:46:00;5.90;;;4.53;;
12145;SDS011;6136;47.032;15.398;2023-03-23T14:48:32;4.97;;;3.83;;
12145;SDS011;6136;47.032;15.398;2023-03-23T14:50:59;6.28;;;3.88;;
12145;SDS011;6136;47.032;15.398;2023-03-23T14:53:31;9.00;;;4.05;;
12145;SDS011;6136;47.032;15.398;2023-03-23T14:56:00;5.18;;;3.85;;
12145;SDS011;6136;47.032;15.398;2023-03-23T14:58:30;5.03;;;3.85;;
12145;SDS011;6136;47.032;15.398;2023-03-23T15:00:58;6.22;;;3.92;;
12145;SDS011;6136;47.032;15.398;2023-03-23T15:03:30;4.57;;;4.15;;
12145;SDS011;6136;47.032;15.398;2023-03-23T15:06:03;4.13;;;3.65;;
12145;SDS011;6136;47.032;15.398;2023-03-23T15:08:33;4.68;;;3.72;;
12145;SDS011;6136;47.032;15.398;2023-03-23T15:11:05;6.38;;;3.88;;
12145;SDS011;6136;47.032;15.398;2023-03-23T15:13:34;4.13;;;3.72;;
12145;SDS011;6136;47.032;15.398;2023-03-23T15:16:06;5.68;;;3.40;;
12145;SDS011;6136;47.032;15.398;2023-03-23T15:18:39;5.97;;;3.85;;
12145;SDS011;6136;47.032;15.398;2023-03-23T15:21:19;5.75;;;3.45;;
12145;SDS011;6136;47.032;15.398;2023-03-23T15:23:50;7.30;;;3.70;;
12145;SDS011;6136;47.032;15.398;2023-03-23T15:26:27;5.55;;;4.15;;
12145;SDS011;6136;47.032;15.398;2023-03-23T15:31:50;4.30;;;3.90;;
12145;SDS011;6136;47.032;15.398;2023-03-23T15:34:30;6.93;;;4.38;;
12145;SDS011;6136;47.032;15.398;2023-03-23T15:37:05;5.85;;;4.38;;
12145;SDS011;6136;47.032;15.398;2023-03-23T15:39:43;5.32;;;4.25;;
12145;SDS011;6136;47.032;15.398;2023-03-23T15:42:21;5.65;;;4.35;;
12145;SDS011;6136;47.032;15.398;2023-03-23T15:45:03;17.23;;;8.77;;